Time;durP1;ratioP1;P1;durP2;ratioP2;P2;SDS_P1;SDS_P2;PMS_P1;PMS_P2;Temp;Humidity;BMP_temperature;BMP_pressure;BME280_temperature;BME280_humidity;BME280_pressure;Samples;Min_cycle;Max_cycle;Signal;HPM_P1;HPM_P2
2024/04/02 00:01:05;;;;;;;;;;;18.00;65.70;;;;;;5002630;28;1165;-70
2024/04/02 00:03:31;;;;;;;;;;;17.90;65.70;;;;;;5018809;28;1497;-71
2024/04/02 00:05:56;;;;;;;;;;;17.90;65.70;;;;;;4998589;28;1505;-71
2024/04/02 00:08:22;;;;;;;;;;;17.90;65.80;;;;;;4999498;28;1521;-71
2024/04/02 00:10:47;;;;;;;;;;;17.90;65.70;;;;;;5003417;28;1177;-71
2024/04/02 00:13:13;;;;;;;;;;;17.90;65.70;;;;;;5001015;28;1167;-71
2024/04/02 00:15:42;;;;;;;;;;;17.90;65.70;;;;;;4997333;28;1973;-71
2024/04/02 00:18:08;;;;;;;;;;;17.90;65.80;;;;;;5000650;28;1325;-71
2024/04/02 00:20:33;;;;;;;;;;;17.90;65.70;;;;;;4999188;28;1357;-71
2024/04/02 00:22:59;;;;;;;;;;;17.90;65.70;;;;;;4999418;28;1264;-71
2024/04/02 00:25:24;;;;;;;;;;;17.90;65.80;;;;;;5033016;28;1447;-71
2024/04/02 00:27:53;;;;;;;;;;;17.90;65.80;;;;;;5034272;28;1227;-71
2024/04/02 00:30:25;;;;;;;;;;;17.90;65.80;;;;;;5000648;28;1464;-71
2024/04/02 00:32:51;;;;;;;;;;;17.90;65.80;;;;;;5031955;28;1267;-71
2024/04/02 00:35:16;;;;;;;;;;;17.90;65.80;;;;;;5000316;28;1902;-71
2024/04/02 00:37:42;;;;;;;;;;;17.90;65.80;;;;;;5030307;28;1287;-71
2024/04/02 00:40:08;;;;;;;;;;;17.90;65.80;;;;;;5005110;28;1515;-72
2024/04/02 00:42:34;;;;;;;;;;;17.90;65.80;;;;;;5002469;28;1598;-70
2024/04/02 00:44:59;;;;;;;;;;;17.90;65.80;;;;;;5001459;28;1664;-70
2024/04/02 00:47:25;;;;;;;;;;;17.90;65.80;;;;;;5003571;28;1461;-70
2024/04/02 00:49:50;;;;;;;;;;;17.90;65.80;;;;;;4995810;28;1825;-70
2024/04/02 00:52:16;;;;;;;;;;;17.90;65.90;;;;;;5031359;28;1460;-71
2024/04/02 00:54:41;;;;;;;;;;;17.90;65.80;;;;;;5033597;28;1347;-71
2024/04/02 00:57:07;;;;;;;;;;;17.90;65.80;;;;;;4998637;28;2025;-70
2024/04/02 00:59:33;;;;;;;;;;;17.90;65.80;;;;;;5018208;28;1737;-71
2024/04/02 01:01:59;;;;;;;;;;;17.90;65.90;;;;;;5031936;28;1467;-71
2024/04/02 01:04:24;;;;;;;;;;;17.90;65.90;;;;;;5048615;28;1603;-71
2024/04/02 01:06:50;;;;;;;;;;;17.90;65.90;;;;;;5032684;28;1685;-70
2024/04/02 01:09:15;;;;;;;;;;;17.90;65.90;;;;;;5001860;28;1352;-69
2024/04/02 01:11:41;;;;;;;;;;;17.90;65.90;;;;;;5017550;28;1422;-69
2024/04/02 01:14:06;;;;;;;;;;;17.90;65.90;;;;;;5033705;28;1519;-70
2024/04/02 01:16:32;;;;;;;;;;;17.90;65.90;;;;;;5001806;28;1906;-69
2024/04/02 01:18:57;;;;;;;;;;;17.90;65.90;;;;;;5016247;28;1340;-70
2024/04/02 01:21:23;;;;;;;;;;;17.90;65.90;;;;;;4999426;28;1519;-70
2024/04/02 01:23:48;;;;;;;;;;;17.90;65.90;;;;;;4998429;28;1455;-71
2024/04/02 01:26:14;;;;;;;;;;;17.90;66.00;;;;;;5032974;28;1573;-71
2024/04/02 01:28:39;;;;;;;;;;;17.90;66.00;;;;;;4999348;28;1624;-71
2024/04/02 01:31:05;;;;;;;;;;;17.90;66.00;;;;;;5028591;28;1587;-71
2024/04/02 01:33:30;;;;;;;;;;;17.90;65.90;;;;;;5033150;28;1433;-72
2024/04/02 01:35:56;;;;;;;;;;;17.90;66.00;;;;;;5030907;28;1899;-72
2024/04/02 01:38:21;;;;;;;;;;;17.90;66.00;;;;;;5000696;28;1489;-72
2024/04/02 01:40:46;;;;;;;;;;;17.90;66.00;;;;;;4999115;28;1427;-73
2024/04/02 01:43:12;;;;;;;;;;;17.90;66.00;;;;;;4998948;28;1429;-73
2024/04/02 01:45:40;;;;;;;;;;;17.90;66.00;;;;;;5031934;28;1470;-72
2024/04/02 01:48:06;;;;;;;;;;;17.90;66.00;;;;;;4997526;28;1563;-71
2024/04/02 01:50:31;;;;;;;;;;;17.90;66.00;;;;;;5000621;28;1321;-71
2024/04/02 01:52:57;;;;;;;;;;;17.90;66.00;;;;;;4998790;28;1466;-72
2024/04/02 01:55:22;;;;;;;;;;;17.90;66.00;;;;;;5030379;28;1965;-69
2024/04/02 01:57:48;;;;;;;;;;;17.90;66.00;;;;;;4999911;28;1757;-71
2024/04/02 02:00:14;;;;;;;;;;;17.90;66.00;;;;;;5031038;28;1510;-72
2024/04/02 02:02:40;;;;;;;;;;;17.80;66.00;;;;;;5036488;28;1641;-73
2024/04/02 02:05:05;;;;;;;;;;;17.90;66.00;;;;;;5003632;28;1277;-72
2024/04/02 02:07:31;;;;;;;;;;;17.90;66.10;;;;;;5001419;28;1696;-72
2024/04/02 02:09:56;;;;;;;;;;;17.90;66.10;;;;;;4998989;28;1611;-71
2024/04/02 02:12:22;;;;;;;;;;;17.90;66.10;;;;;;5005607;28;1656;-73
2024/04/02 02:14:47;;;;;;;;;;;17.90;66.10;;;;;;5031369;28;1268;-73
2024/04/02 02:17:13;;;;;;;;;;;17.90;66.10;;;;;;5000089;28;1922;-73
2024/04/02 02:19:38;;;;;;;;;;;17.90;66.80;;;;;;5000367;28;1426;-73
2024/04/02 02:22:04;;;;;;;;;;;17.80;66.00;;;;;;5031125;28;1285;-73
2024/04/02 02:24:29;;;;;;;;;;;17.80;66.00;;;;;;5001262;28;1617;-73
2024/04/02 02:26:55;;;;;;;;;;;17.90;66.10;;;;;;5031799;28;1589;-73
2024/04/02 02:29:25;;;;;;;;;;;17.90;66.10;;;;;;5024559;28;1404;-71
2024/04/02 02:31:51;;;;;;;;;;;17.80;66.00;;;;;;5001771;28;958;-72
2024/04/02 02:34:16;;;;;;;;;;;17.90;66.90;;;;;;5034406;28;1391;-71
2024/04/02 02:36:42;;;;;;;;;;;17.90;66.10;;;;;;5005579;28;1914;-72
2024/04/02 02:39:07;;;;;;;;;;;17.90;66.10;;;;;;5003849;28;1603;-72
2024/04/02 02:41:33;;;;;;;;;;;17.80;66.00;;;;;;5041739;28;1475;-73
2024/04/02 02:43:59;;;;;;;;;;;17.80;66.10;;;;;;5006481;28;1575;-70
2024/04/02 02:46:25;;;;;;;;;;;17.80;66.10;;;;;;5006226;28;1370;-69
2024/04/02 02:48:50;;;;;;;;;;;17.90;66.10;;;;;;5006800;28;1537;-69
2024/04/02 02:51:16;;;;;;;;;;;17.80;66.10;;;;;;5036071;28;1363;-69
2024/04/02 02:53:41;;;;;;;;;;;17.80;66.10;;;;;;5004513;28;1330;-70
2024/04/02 02:56:07;;;;;;;;;;;17.90;66.10;;;;;;5003490;28;1906;-69
2024/04/02 02:58:32;;;;;;;;;;;17.90;66.10;;;;;;5000795;28;1338;-69
2024/04/02 03:00:58;;;;;;;;;;;17.80;66.10;;;;;;5002224;28;1223;-69
2024/04/02 03:03:23;;;;;;;;;;;17.80;66.10;;;;;;5031989;28;1512;-69
2024/04/02 03:05:55;;;;;;;;;;;17.80;66.10;;;;;;4999595;28;1307;-69
2024/04/02 03:08:21;;;;;;;;;;;17.80;66.10;;;;;;5033406;28;1591;-69
2024/04/02 03:10:53;;;;;;;;;;;17.80;66.10;;;;;;5000784;28;1582;-69
2024/04/02 03:13:19;;;;;;;;;;;17.80;66.10;;;;;;5001675;28;942;-70
2024/04/02 03:15:44;;;;;;;;;;;17.80;66.10;;;;;;5022153;28;1914;-70
2024/04/02 03:18:10;;;;;;;;;;;17.80;66.10;;;;;;5010758;28;1348;-70
2024/04/02 03:20:38;;;;;;;;;;;17.80;66.10;;;;;;5037776;28;1000;-70
2024/04/02 03:23:05;;;;;;;;;;;17.80;66.10;;;;;;5033812;28;1280;-73
2024/04/02 03:25:30;;;;;;;;;;;17.80;66.10;;;;;;5000318;28;1449;-70
2024/04/02 03:27:56;;;;;;;;;;;17.80;66.10;;;;;;5001256;28;1337;-70
2024/04/02 03:30:21;;;;;;;;;;;17.80;66.10;;;;;;5001684;28;1502;-69
2024/04/02 03:32:47;;;;;;;;;;;17.80;66.20;;;;;;5002149;28;994;-69
2024/04/02 03:35:12;;;;;;;;;;;17.80;66.10;;;;;;5003854;28;1965;-68
2024/04/02 03:37:37;;;;;;;;;;;17.80;66.20;;;;;;5003738;28;1668;-71
2024/04/02 03:40:03;;;;;;;;;;;17.80;66.10;;;;;;5000892;28;1347;-70
2024/04/02 03:42:29;;;;;;;;;;;17.80;66.10;;;;;;5025630;28;1211;-70
2024/04/02 03:44:54;;;;;;;;;;;17.80;66.20;;;;;;5032917;28;1577;-70
2024/04/02 03:47:20;;;;;;;;;;;17.80;66.20;;;;;;5003328;28;1489;-70
2024/04/02 03:49:45;;;;;;;;;;;17.80;66.20;;;;;;5000950;28;1150;-70
2024/04/02 03:52:11;;;;;;;;;;;17.80;66.20;;;;;;5001670;28;1496;-68
2024/04/02 03:54:36;;;;;;;;;;;17.80;66.20;;;;;;4999981;28;1189;-72
2024/04/02 03:57:01;;;;;;;;;;;17.80;66.20;;;;;;5033409;28;1973;-69
2024/04/02 03:59:27;;;;;;;;;;;17.80;66.20;;;;;;5032623;28;1672;-69
2024/04/02 04:01:52;;;;;;;;;;;17.80;66.20;;;;;;5000432;28;1559;-69
2024/04/02 04:04:18;;;;;;;;;;;17.80;66.20;;;;;;5008419;28;1485;-70
2024/04/02 04:06:43;;;;;;;;;;;17.80;66.20;;;;;;4998987;28;1350;-70
2024/04/02 04:09:09;;;;;;;;;;;17.80;66.20;;;;;;5000888;28;1638;-71
2024/04/02 04:11:34;;;;;;;;;;;17.80;66.20;;;;;;5000439;28;1339;-69
2024/04/02 04:14:01;;;;;;;;;;;17.80;66.20;;;;;;5000759;28;1494;-70
2024/04/02 04:16:27;;;;;;;;;;;17.80;66.20;;;;;;5001330;28;1903;-70
2024/04/02 04:18:53;;;;;;;;;;;17.80;66.10;;;;;;5000724;28;1306;-70
2024/04/02 04:21:18;;;;;;;;;;;17.90;66.20;;;;;;4999528;28;1332;-70
2024/04/02 04:23:44;;;;;;;;;;;17.90;66.10;;;;;;5032766;28;1716;-70
2024/04/02 04:26:10;;;;;;;;;;;17.90;66.00;;;;;;5000278;28;1300;-69
2024/04/02 04:28:36;;;;;;;;;;;17.90;66.00;;;;;;5008550;28;1502;-68
2024/04/02 04:31:02;;;;;;;;;;;18.00;66.00;;;;;;5031629;28;1505;-70
2024/04/02 04:33:27;;;;;;;;;;;18.00;65.80;;;;;;5016274;28;1642;-69
2024/04/02 04:35:53;;;;;;;;;;;18.00;65.80;;;;;;5030297;28;1976;-71
2024/04/02 04:38:19;;;;;;;;;;;18.00;65.70;;;;;;5033459;28;1225;-71
2024/04/02 04:40:44;;;;;;;;;;;18.00;65.60;;;;;;5035307;28;1172;-70
2024/04/02 04:43:10;;;;;;;;;;;18.00;65.50;;;;;;5032649;28;1243;-70
2024/04/02 04:45:36;;;;;;;;;;;18.00;65.50;;;;;;5000233;28;1446;-70
2024/04/02 04:48:04;;;;;;;;;;;18.00;65.40;;;;;;5001292;28;1522;-71
2024/04/02 04:50:30;;;;;;;;;;;18.10;65.40;;;;;;5025927;28;1498;-71
2024/04/02 04:52:55;;;;;;;;;;;18.10;65.40;;;;;;4998717;28;1671;-71
2024/04/02 04:55:21;;;;;;;;;;;18.10;65.30;;;;;;5003331;28;1970;-71
2024/04/02 04:57:46;;;;;;;;;;;18.10;65.20;;;;;;5000339;28;1426;-70
2024/04/02 05:00:12;;;;;;;;;;;18.10;65.20;;;;;;4997612;28;1774;-73
2024/04/02 05:02:38;;;;;;;;;;;18.10;65.10;;;;;;4997566;28;1339;-70
2024/04/02 05:05:03;;;;;;;;;;;18.10;65.10;;;;;;4998624;28;1352;-73
2024/04/02 05:07:29;;;;;;;;;;;18.10;65.00;;;;;;5000214;28;1394;-73
2024/04/02 05:09:54;;;;;;;;;;;18.20;65.00;;;;;;4996723;28;1643;-71
2024/04/02 05:12:20;;;;;;;;;;;18.20;65.00;;;;;;4998341;28;1565;-73
2024/04/02 05:14:45;;;;;;;;;;;18.20;64.90;;;;;;5031502;28;1394;-73
2024/04/02 05:17:11;;;;;;;;;;;18.20;64.90;;;;;;5028805;28;2381;-73
2024/04/02 05:19:36;;;;;;;;;;;18.20;64.90;;;;;;5002078;28;1419;-73
2024/04/02 05:22:02;;;;;;;;;;;18.20;64.80;;;;;;5032020;28;1538;-72
2024/04/02 05:24:27;;;;;;;;;;;18.20;64.90;;;;;;5034677;28;1668;-73
2024/04/02 05:26:53;;;;;;;;;;;18.20;64.80;;;;;;4998393;28;1348;-72
2024/04/02 05:29:18;;;;;;;;;;;18.20;64.80;;;;;;5031007;28;1328;-72
2024/04/02 05:31:44;;;;;;;;;;;18.20;64.80;;;;;;5033092;28;1634;-73
2024/04/02 05:34:09;;;;;;;;;;;18.20;64.80;;;;;;5029264;28;1325;-73
2024/04/02 05:36:35;;;;;;;;;;;18.20;64.80;;;;;;4996177;28;1981;-73
2024/04/02 05:39:00;;;;;;;;;;;18.20;64.80;;;;;;5023575;28;1423;-74
2024/04/02 05:41:25;;;;;;;;;;;18.20;64.80;;;;;;4998823;28;1455;-73
2024/04/02 05:43:51;;;;;;;;;;;18.20;64.80;;;;;;5034978;28;1157;-73
2024/04/02 05:46:16;;;;;;;;;;;18.20;64.80;;;;;;4998487;28;1399;-72
2024/04/02 05:48:45;;;;;;;;;;;18.20;64.90;;;;;;4999926;28;1018;-72
2024/04/02 05:51:10;;;;;;;;;;;18.20;64.80;;;;;;5031309;28;993;-72
2024/04/02 05:53:36;;;;;;;;;;;18.20;64.80;;;;;;4999733;28;1023;-71
2024/04/02 05:56:03;;;;;;;;;;;18.20;64.80;;;;;;5018294;28;1938;-71
2024/04/02 05:58:28;;;;;;;;;;;18.20;64.90;;;;;;5006615;28;1211;-71
2024/04/02 06:01:03;;;;;;;;;;;18.20;64.80;;;;;;5029611;28;884;-71
2024/04/02 06:03:28;;;;;;;;;;;18.20;64.90;;;;;;5027953;28;1187;-71
2024/04/02 06:05:54;;;;;;;;;;;18.20;64.90;;;;;;4998543;28;1430;-71
2024/04/02 06:08:19;;;;;;;;;;;18.20;64.90;;;;;;4998803;28;1474;-71
2024/04/02 06:10:45;;;;;;;;;;;18.20;65.00;;;;;;5000544;28;1847;-71
2024/04/02 06:13:10;;;;;;;;;;;18.20;65.00;;;;;;5031528;28;1390;-75
2024/04/02 06:15:36;;;;;;;;;;;18.20;65.00;;;;;;5029159;28;1922;-74
2024/04/02 06:18:01;;;;;;;;;;;18.20;65.00;;;;;;4998183;28;1653;-75
2024/04/02 06:20:26;;;;;;;;;;;18.20;65.00;;;;;;5030526;28;1411;-74
2024/04/02 06:22:52;;;;;;;;;;;18.20;65.00;;;;;;5001353;28;1604;-74
2024/04/02 06:25:18;;;;;;;;;;;18.20;65.00;;;;;;5031135;28;1292;-74
2024/04/02 06:27:43;;;;;;;;;;;18.20;65.00;;;;;;5032208;28;1129;-74
2024/04/02 06:30:09;;;;;;;;;;;18.20;65.00;;;;;;5030107;28;1649;-73
2024/04/02 06:32:34;;;;;;;;;;;18.20;65.00;;;;;;4998389;28;1250;-73
2024/04/02 06:35:00;;;;;;;;;;;18.20;65.00;;;;;;4999400;28;1326;-72
2024/04/02 06:37:25;;;;;;;;;;;18.20;65.00;;;;;;4995891;28;1967;-73
2024/04/02 06:39:52;;;;;;;;;;;18.20;65.00;;;;;;4997107;28;1485;-73
2024/04/02 06:42:17;;;;;;;;;;;18.20;65.00;;;;;;5028965;28;1379;-73
2024/04/02 06:44:43;;;;;;;;;;;18.20;65.00;;;;;;4998224;28;1096;-73
2024/04/02 06:47:08;;;;;;;;;;;18.20;65.00;;;;;;4998359;28;1339;-73
2024/04/02 06:49:34;;;;;;;;;;;18.20;65.00;;;;;;5005912;28;1494;-73
2024/04/02 06:51:59;;;;;;;;;;;18.20;65.00;;;;;;4997427;28;1682;-75
2024/04/02 06:54:25;;;;;;;;;;;18.20;65.00;;;;;;5032080;28;1631;-75
2024/04/02 06:56:50;;;;;;;;;;;18.20;65.00;;;;;;4996833;28;1894;-71
2024/04/02 06:59:16;;;;;;;;;;;18.20;65.00;;;;;;5030689;28;1576;-71
2024/04/02 07:01:41;;;;;;;;;;;18.20;64.90;;;;;;4999759;28;1696;-72
2024/04/02 07:04:07;;;;;;;;;;;18.20;64.90;;;;;;4999479;28;1620;-72
2024/04/02 07:06:33;;;;;;;;;;;18.20;65.00;;;;;;4998171;28;1405;-72
2024/04/02 07:08:59;;;;;;;;;;;18.20;64.90;;;;;;5001510;28;1388;-72
2024/04/02 07:11:25;;;;;;;;;;;18.20;64.90;;;;;;5030467;28;1499;-71
2024/04/02 07:13:50;;;;;;;;;;;18.20;64.90;;;;;;4999020;28;1207;-72
2024/04/02 07:16:16;;;;;;;;;;;18.20;65.70;;;;;;5000212;28;1976;-71
2024/04/02 07:18:42;;;;;;;;;;;18.20;65.00;;;;;;5001729;28;1537;-71
2024/04/02 07:21:08;;;;;;;;;;;18.20;65.00;;;;;;5002138;28;1454;-71
2024/04/02 07:23:35;;;;;;;;;;;18.20;65.00;;;;;;5001010;28;1696;-72
2024/04/02 07:26:00;;;;;;;;;;;18.20;65.00;;;;;;5008433;28;1375;-71
2024/04/02 07:28:26;;;;;;;;;;;18.20;65.00;;;;;;5001799;28;1540;-71
2024/04/02 07:30:52;;;;;;;;;;;18.20;65.00;;;;;;5002132;28;1261;-71
2024/04/02 07:33:17;;;;;;;;;;;18.20;65.00;;;;;;5032330;28;1725;-70
2024/04/02 07:35:43;;;;;;;;;;;18.20;65.00;;;;;;5000166;28;1918;-72
2024/04/02 07:38:09;;;;;;;;;;;18.20;65.00;;;;;;5033012;28;1465;-71
2024/04/02 07:40:34;;;;;;;;;;;18.20;65.00;;;;;;5003168;28;1517;-71
2024/04/02 07:43:00;;;;;;;;;;;18.20;65.10;;;;;;5001975;28;1442;-70
2024/04/02 07:45:26;;;;;;;;;;;18.20;65.10;;;;;;4999321;28;1177;-72
2024/04/02 07:47:51;;;;;;;;;;;18.10;65.10;;;;;;5002115;28;1351;-71
2024/04/02 07:50:17;;;;;;;;;;;18.10;65.00;;;;;;5034408;28;1394;-71
2024/04/02 07:52:42;;;;;;;;;;;18.20;65.10;;;;;;4998856;28;1668;-71
2024/04/02 07:55:07;;;;;;;;;;;18.10;65.10;;;;;;5035209;28;1386;-71
2024/04/02 07:57:33;;;;;;;;;;;18.20;65.10;;;;;;5032301;28;1984;-71
2024/04/02 07:59:59;;;;;;;;;;;18.10;65.10;;;;;;5033144;28;1486;-70
2024/04/02 08:02:24;;;;;;;;;;;18.20;65.20;;;;;;5002201;28;1456;-70
2024/04/02 08:04:52;;;;;;;;;;;18.10;65.10;;;;;;5003946;28;1771;-72
2024/04/02 08:07:19;;;;;;;;;;;18.10;65.10;;;;;;5033173;28;1650;-71
2024/04/02 08:09:45;;;;;;;;;;;18.10;65.10;;;;;;5001192;28;1633;-71
2024/04/02 08:12:11;;;;;;;;;;;18.10;65.10;;;;;;5000592;28;1654;-70
2024/04/02 08:14:37;;;;;;;;;;;18.10;65.10;;;;;;5009314;28;1386;-70
2024/04/02 08:17:02;;;;;;;;;;;18.10;65.20;;;;;;5000860;28;1976;-70
2024/04/02 08:19:28;;;;;;;;;;;18.10;65.20;;;;;;5001070;28;1238;-70
2024/04/02 08:21:53;;;;;;;;;;;18.10;65.20;;;;;;5037992;28;1503;-70
2024/04/02 08:24:19;;;;;;;;;;;18.10;65.20;;;;;;5001859;28;1475;-70
2024/04/02 08:26:45;;;;;;;;;;;18.10;65.20;;;;;;5001235;28;1391;-70
2024/04/02 08:29:10;;;;;;;;;;;18.10;65.20;;;;;;5000626;28;1302;-70
2024/04/02 08:31:36;;;;;;;;;;;18.10;65.30;;;;;;5001670;28;1229;-70
2024/04/02 08:34:01;;;;;;;;;;;18.10;65.20;;;;;;5018704;28;1517;-70
2024/04/02 08:36:27;;;;;;;;;;;18.10;65.20;;;;;;5001075;28;1887;-70
2024/04/02 08:38:53;;;;;;;;;;;18.10;65.30;;;;;;5002744;28;1232;-71
2024/04/02 08:41:18;;;;;;;;;;;18.10;65.30;;;;;;5032072;28;1188;-70
2024/04/02 08:43:44;;;;;;;;;;;18.10;65.30;;;;;;5032695;28;1403;-73
2024/04/02 08:46:10;;;;;;;;;;;18.10;65.30;;;;;;5002009;28;1409;-73
2024/04/02 08:48:35;;;;;;;;;;;18.10;65.40;;;;;;5012593;28;1238;-73
2024/04/02 08:51:04;;;;;;;;;;;18.10;66.10;;;;;;5033675;28;1454;-75
2024/04/02 08:53:33;;;;;;;;;;;18.10;65.40;;;;;;5030629;28;1379;-71
2024/04/02 08:55:59;;;;;;;;;;;18.10;65.40;;;;;;5030673;28;1930;-71
2024/04/02 08:58:25;;;;;;;;;;;18.10;65.40;;;;;;5032325;28;1482;-71
2024/04/02 09:00:51;;;;;;;;;;;18.10;65.40;;;;;;5033664;28;1855;-73
2024/04/02 09:03:16;;;;;;;;;;;18.10;65.40;;;;;;5001423;28;1470;-72
2024/04/02 09:05:42;;;;;;;;;;;18.10;65.50;;;;;;4995995;28;1625;-72
2024/04/02 09:08:09;;;;;;;;;;;18.10;65.40;;;;;;5000053;28;1007;-72
2024/04/02 09:10:35;;;;;;;;;;;18.10;65.40;;;;;;5016411;28;1392;-71
2024/04/02 09:13:00;;;;;;;;;;;18.10;65.40;;;;;;5030693;28;1140;-71
2024/04/02 09:15:26;;;;;;;;;;;18.10;65.40;;;;;;5031399;28;1981;-71
2024/04/02 09:17:51;;;;;;;;;;;18.10;65.40;;;;;;4998168;28;1796;-72
2024/04/02 09:20:17;;;;;;;;;;;18.10;65.40;;;;;;4999540;28;1460;-71
2024/04/02 09:22:42;;;;;;;;;;;18.10;65.30;;;;;;5032966;28;1539;-71
2024/04/02 09:25:09;;;;;;;;;;;18.10;65.30;;;;;;4999029;28;1491;-71
2024/04/02 09:27:35;;;;;;;;;;;18.10;65.30;;;;;;4998581;28;1206;-71
2024/04/02 09:30:00;;;;;;;;;;;18.10;65.20;;;;;;5001313;28;1548;-70
2024/04/02 09:32:25;;;;;;;;;;;18.10;65.10;;;;;;5033677;28;1494;-71
2024/04/02 09:34:52;;;;;;;;;;;18.20;65.20;;;;;;5033362;28;1721;-71
2024/04/02 09:37:35;;;;;;;;;;;18.20;65.10;;;;;;5032761;28;1902;-71
2024/04/02 09:40:04;;;;;;;;;;;18.20;65.10;;;;;;5031873;28;1352;-71
2024/04/02 09:42:33;;;;;;;;;;;18.20;65.10;;;;;;4997969;28;1566;-71
2024/04/02 09:44:59;;;;;;;;;;;18.20;65.10;;;;;;4999663;28;1579;-71
2024/04/02 09:47:24;;;;;;;;;;;18.20;65.10;;;;;;4998536;28;1215;-71
2024/04/02 09:49:50;;;;;;;;;;;18.20;65.10;;;;;;5031733;28;1477;-70
2024/04/02 09:52:17;;;;;;;;;;;18.20;65.10;;;;;;5030478;28;1588;-71
2024/04/02 09:54:43;;;;;;;;;;;18.20;65.10;;;;;;5031373;28;1345;-70
2024/04/02 09:57:08;;;;;;;;;;;18.20;65.10;;;;;;5000294;28;1902;-70
2024/04/02 09:59:34;;;;;;;;;;;18.20;65.10;;;;;;5032389;28;1353;-70
2024/04/02 10:01:59;;;;;;;;;;;18.20;65.10;;;;;;5016110;28;1852;-70
2024/04/02 10:04:25;;;;;;;;;;;18.20;65.10;;;;;;5028039;28;2147;-71
2024/04/02 10:06:53;;;;;;;;;;;18.20;65.10;;;;;;5011805;28;1872;-71
2024/04/02 10:09:18;;;;;;;;;;;18.20;65.10;;;;;;5029077;28;2324;-71
2024/04/02 10:11:45;;;;;;;;;;;18.20;65.10;;;;;;4997840;28;1450;-71
2024/04/02 10:14:12;;;;;;;;;;;18.20;65.10;;;;;;4996518;28;1478;-71
2024/04/02 10:16:41;;;;;;;;;;;18.20;65.10;;;;;;4998302;28;1904;-71
2024/04/02 10:19:13;;;;;;;;;;;18.20;65.10;;;;;;4996712;28;1541;-71
2024/04/02 10:21:39;;;;;;;;;;;18.20;65.10;;;;;;5032895;28;1677;-71
2024/04/02 10:24:05;;;;;;;;;;;18.20;65.20;;;;;;5028236;28;1466;-71
2024/04/02 10:26:31;;;;;;;;;;;18.20;65.20;;;;;;4997538;28;1512;-71
2024/04/02 10:28:56;;;;;;;;;;;18.20;65.20;;;;;;4999639;28;1288;-71
2024/04/02 10:31:32;;;;;;;;;;;18.20;65.20;;;;;;5030581;28;1275;-71
2024/04/02 10:33:57;;;;;;;;;;;18.10;65.20;;;;;;5031341;28;1675;-71
2024/04/02 10:36:23;;;;;;;;;;;18.10;65.20;;;;;;5032229;28;1898;-71
2024/04/02 10:38:48;;;;;;;;;;;18.10;65.20;;;;;;5030098;28;1497;-71
2024/04/02 10:41:14;;;;;;;;;;;18.10;65.20;;;;;;4997730;28;1600;-71
2024/04/02 10:43:39;;;;;;;;;;;18.10;65.20;;;;;;5006613;28;1504;-71
2024/04/02 10:46:04;;;;;;;;;;;18.10;65.20;;;;;;5030259;28;1494;-71
2024/04/02 10:48:30;;;;;;;;;;;18.10;65.20;;;;;;5030204;28;1576;-71
2024/04/02 10:50:55;;;;;;;;;;;18.10;66.00;;;;;;5002924;28;1373;-71
2024/04/02 10:53:21;;;;;;;;;;;18.10;65.20;;;;;;5033499;28;1645;-71
2024/04/02 10:55:46;;;;;;;;;;;18.10;65.30;;;;;;5004946;28;2437;-72
2024/04/02 10:58:14;;;;;;;;;;;18.10;65.30;;;;;;5007248;28;1472;-71
2024/04/02 11:00:39;;;;;;;;;;;18.10;65.30;;;;;;5034628;28;1510;-73
2024/04/02 11:03:04;;;;;;;;;;;18.10;65.30;;;;;;5037802;28;1486;-71
2024/04/02 11:05:30;;;;;;;;;;;18.10;65.30;;;;;;5004643;28;1228;-71
2024/04/02 11:07:56;;;;;;;;;;;18.10;65.40;;;;;;5002827;28;1244;-71
2024/04/02 11:10:22;;;;;;;;;;;18.10;65.40;;;;;;5002445;28;1456;-71
2024/04/02 11:12:47;;;;;;;;;;;18.10;65.40;;;;;;5003293;28;1502;-71
2024/04/02 11:15:12;;;;;;;;;;;18.10;65.40;;;;;;5004187;28;1509;-71
2024/04/02 11:17:38;;;;;;;;;;;18.10;65.40;;;;;;5003396;28;1902;-71
2024/04/02 11:20:09;;;;;;;;;;;18.10;65.50;;;;;;5003130;28;1352;-71
2024/04/02 11:25:19;;;;;;;;;;;18.10;65.50;;;;;;5031867;28;1627;-71
2024/04/02 11:27:45;;;;;;;;;;;18.10;65.50;;;;;;5038563;28;1181;-71
2024/04/02 11:30:11;;;;;;;;;;;18.10;65.50;;;;;;5035440;28;1250;-72
2024/04/02 11:32:36;;;;;;;;;;;18.10;65.50;;;;;;5003596;28;1671;-71
2024/04/02 11:35:15;;;;;;;;;;;18.10;65.50;;;;;;5021488;28;1337;-71
2024/04/02 11:37:41;;;;;;;;;;;18.10;65.50;;;;;;5022115;28;1906;-71
2024/04/02 11:40:10;;;;;;;;;;;18.10;65.60;;;;;;5033799;28;1650;-71
2024/04/02 11:42:35;;;;;;;;;;;18.00;65.50;;;;;;5002561;28;1337;-71
2024/04/02 11:45:01;;;;;;;;;;;18.10;65.60;;;;;;5001903;28;1129;-71
2024/04/02 11:47:26;;;;;;;;;;;18.10;65.60;;;;;;5033664;28;1471;-71
2024/04/02 11:49:52;;;;;;;;;;;18.10;65.60;;;;;;5033141;28;1475;-71
2024/04/02 11:52:17;;;;;;;;;;;18.10;65.60;;;;;;5016221;28;1748;-71
2024/04/02 11:54:43;;;;;;;;;;;18.10;65.60;;;;;;5017148;28;1534;-72
2024/04/02 12:02:27;;;;;;;;;;;18.10;65.70;;;;;;5001270;28;1836;-72
2024/04/02 12:04:52;;;;;;;;;;;18.00;65.60;;;;;;4997629;28;1703;-72
2024/04/02 12:07:18;;;;;;;;;;;18.00;65.60;;;;;;5002964;28;1323;-72
2024/04/02 12:09:46;;;;;;;;;;;18.00;65.60;;;;;;5001846;28;1667;-73
2024/04/02 12:12:11;;;;;;;;;;;18.00;65.70;;;;;;4999570;28;1611;-72
2024/04/02 12:14:37;;;;;;;;;;;18.00;65.70;;;;;;5031012;28;1386;-72
2024/04/02 12:17:02;;;;;;;;;;;18.10;65.70;;;;;;5000328;28;1978;-71
2024/04/02 12:19:28;;;;;;;;;;;18.00;65.70;;;;;;5034177;28;1297;-72
2024/04/02 12:21:53;;;;;;;;;;;18.00;65.70;;;;;;5001146;28;1703;-72
2024/04/02 12:24:19;;;;;;;;;;;18.00;65.70;;;;;;4999189;28;1202;-72
2024/04/02 12:26:44;;;;;;;;;;;18.00;65.70;;;;;;5002851;28;1804;-70
2024/04/02 12:29:09;;;;;;;;;;;18.00;65.70;;;;;;4997411;28;1219;-69
2024/04/02 12:31:35;;;;;;;;;;;18.00;65.70;;;;;;5001949;28;1014;-70
2024/04/02 12:34:00;;;;;;;;;;;18.00;65.70;;;;;;4996800;28;1624;-71
2024/04/02 12:36:26;;;;;;;;;;;18.00;65.70;;;;;;5016862;28;1941;-72
2024/04/02 12:38:51;;;;;;;;;;;18.00;65.70;;;;;;5000039;28;1958;-72
2024/04/02 12:41:17;;;;;;;;;;;18.00;65.70;;;;;;5032011;28;1459;-71
2024/04/02 12:43:42;;;;;;;;;;;18.00;65.80;;;;;;5019523;28;1393;-71
2024/04/02 12:46:08;;;;;;;;;;;18.00;65.80;;;;;;4999542;28;1566;-71
2024/04/02 12:48:35;;;;;;;;;;;18.00;65.80;;;;;;5031968;28;1519;-72
2024/04/02 12:51:00;;;;;;;;;;;18.00;65.80;;;;;;5000702;28;1368;-72
2024/04/02 12:53:26;;;;;;;;;;;18.00;65.80;;;;;;5027116;28;1342;-71
2024/04/02 12:55:51;;;;;;;;;;;18.00;65.80;;;;;;5002218;28;1907;-72
2024/04/02 12:58:17;;;;;;;;;;;18.00;65.80;;;;;;4998856;28;2269;-72
2024/04/02 13:00:43;;;;;;;;;;;18.00;65.80;;;;;;4996588;28;1150;-72
2024/04/02 13:03:08;;;;;;;;;;;18.00;65.80;;;;;;4997231;28;1381;-73
2024/04/02 13:05:34;;;;;;;;;;;18.00;65.80;;;;;;4998007;28;1597;-72
2024/04/02 13:08:00;;;;;;;;;;;18.00;65.90;;;;;;5000750;28;1422;-72
2024/04/02 13:10:25;;;;;;;;;;;18.00;65.90;;;;;;5001844;28;1264;-72
2024/04/02 13:12:51;;;;;;;;;;;18.00;65.90;;;;;;5001250;28;1220;-72
2024/04/02 13:15:16;;;;;;;;;;;18.00;65.90;;;;;;4997264;28;1552;-71
2024/04/02 13:17:43;;;;;;;;;;;18.00;65.90;;;;;;4998860;28;1914;-72
2024/04/02 13:20:09;;;;;;;;;;;18.00;65.90;;;;;;5000852;28;1780;-70
2024/04/02 13:22:34;;;;;;;;;;;18.00;65.90;;;;;;5001420;28;1475;-71
2024/04/02 13:25:00;;;;;;;;;;;18.00;65.90;;;;;;4999678;28;1176;-71
2024/04/02 13:27:25;;;;;;;;;;;18.00;65.90;;;;;;4996563;28;1308;-71
2024/04/02 13:29:51;;;;;;;;;;;18.00;65.90;;;;;;5031314;28;1506;-71
2024/04/02 13:32:17;;;;;;;;;;;18.00;65.90;;;;;;5002089;28;1494;-71
2024/04/02 13:34:43;;;;;;;;;;;18.00;65.90;;;;;;5031584;28;1523;-71
2024/04/02 13:37:10;;;;;;;;;;;17.90;65.90;;;;;;4995857;28;2116;-71
2024/04/02 13:39:36;;;;;;;;;;;17.90;65.90;;;;;;4999805;28;1462;-71
2024/04/02 13:42:02;;;;;;;;;;;17.90;65.90;;;;;;5032957;28;1685;-72
2024/04/02 13:44:28;;;;;;;;;;;17.90;66.00;;;;;;4997749;28;1580;-71
2024/04/02 13:46:54;;;;;;;;;;;18.00;66.00;;;;;;5031733;28;1666;-71
2024/04/02 13:49:19;;;;;;;;;;;18.00;66.00;;;;;;4996709;28;1562;-71
2024/04/02 13:51:45;;;;;;;;;;;17.90;65.90;;;;;;5030980;28;1756;-72
2024/04/02 13:54:11;;;;;;;;;;;17.90;66.00;;;;;;5030524;28;1570;-71
2024/04/02 13:56:36;;;;;;;;;;;18.00;66.00;;;;;;5014966;28;1906;-71
2024/04/02 13:59:02;;;;;;;;;;;18.00;66.00;;;;;;4993006;28;1379;-71
2024/04/02 14:01:27;;;;;;;;;;;17.90;66.00;;;;;;5001227;28;1701;-71
2024/04/02 14:03:53;;;;;;;;;;;17.90;66.00;;;;;;4999295;28;1509;-71
2024/04/02 14:06:18;;;;;;;;;;;18.00;66.00;;;;;;5031234;28;1413;-71
2024/04/02 14:08:44;;;;;;;;;;;17.90;66.00;;;;;;4999787;28;1419;-71
2024/04/02 14:11:16;;;;;;;;;;;18.00;66.00;;;;;;4999177;28;1161;-71
2024/04/02 14:13:43;;;;;;;;;;;17.90;66.00;;;;;;5031382;28;1448;-71
2024/04/02 14:16:15;;;;;;;;;;;17.90;66.00;;;;;;4998299;28;1902;-71
2024/04/02 14:18:41;;;;;;;;;;;17.90;66.00;;;;;;5028878;28;1810;-72
2024/04/02 14:21:07;;;;;;;;;;;18.00;66.10;;;;;;5011730;28;1526;-71
2024/04/02 14:23:35;;;;;;;;;;;17.90;66.00;;;;;;5029618;28;1632;-71
2024/04/02 14:26:02;;;;;;;;;;;17.90;66.10;;;;;;5003527;28;1276;-71
2024/04/02 14:28:27;;;;;;;;;;;17.90;66.10;;;;;;5033377;28;1456;-71
2024/04/02 14:30:54;;;;;;;;;;;17.90;66.00;;;;;;5034161;28;1669;-71